Libuse, LA (71348)

3:01 PM CDT on July 27, 2016 (GMT -0500)
Cherokee Village | | Change Station

Elev 77 ft 31.26 °N, 92.48 °W | Updated 3 seconds ago

Overcast
Overcast
82.8 °F
Feels Like 83 °F
N
2.5
Wind Variable Wind from WSW
Gusts 4.9 mph

Today
High -- | Low -- °F
--% Chance of Precip.
Yesterday
High -- | Low -- °F
Precip. -- in
Pressure 29.99 in
Visibility 4.0 miles
Clouds Few 1400 ft
Mostly Cloudy 2100 ft
Overcast 3400 ft
Heat Index 83 °F
Dew Point 59 °F
Humidity 45%
Rainfall 0.00 in
Snow Depth Not available.
6:23 AM 8:08 PM
Last Quarter, 40% visible
METAR KAEX 271953Z 00000KT 4SM -RA BR FEW014 BKN021 OVC034 26/24 A2998 RMK AO2 LTG DSNT N AND NW RAB47 TSE03 SLP156 P0000 T02560239
Pressure 29.99 in
Visibility 4.0 miles
Clouds Few 1400 ft
Mostly Cloudy 2100 ft
Overcast 3400 ft
Heat Index 83 °F
Dew Point 59 °F
Humidity 45%
Rainfall 0.00 in
Snow Depth Not available.
6:23 AM 8:08 PM
Last Quarter, 40% visible
METAR KAEX 271953Z 00000KT 4SM -RA BR FEW014 BKN021 OVC034 26/24 A2998 RMK AO2 LTG DSNT N AND NW RAB47 TSE03 SLP156 P0000 T02560239

10-Day Weather Forecast

Almanac

Astronomy

Jul. 27, 2016 Rise Set
Actual Time
Civil Twilight
Nautical Twilight
Astronomical Twilight
Moon
Length of Visible Light
Length of Day
Tomorrow will be .
, % of the Moon is Illuminated

Today's Extremes

State Highs State Lows

Community

WunderPhotos

Upload Photos

1,927,931 photos uploaded!

WunderBlog® & News

Nearby

Air Quality

  Air Quality AQ Index Pollutant
Not available.

Snow Depth

Station Depth Elevation

Earthquake Activity

City Distance Mag. Time & Date
Minimum magnitude displayed is 2.5.

Coastal Water Temperatures

Place Temperature

Stations

Nearby Weather Stations

Station Location Temp. Windchill Dew Point Humidity Wind Precip. Elev Updated Type
                   

Watches & Warnings

There are currently no watches in effect.